Map

Track Data

SID SEASON NUMBER BASIN SUBBASIN NAME ISO_TIME NATURE LAT LON WMO_WIND WMO_PRES WMO_AGENCY TRACK_TYPE DIST2LAND LANDFALL IFLAG USA_AGENCY USA_ATCF_ID USA_LAT USA_LON USA_RECORD USA_STATUS USA_WIND USA_PRES USA_SSHS USA_R34_NE USA_R34_SE USA_R34_SW USA_R34_NW USA_R50_NE USA_R50_SE USA_R50_SW USA_R50_NW USA_R64_NE USA_R64_SE USA_R64_SW USA_R64_NW USA_POCI USA_ROCI USA_RMW USA_EYE TOKYO_LAT TOKYO_LON TOKYO_GRADE TOKYO_WIND TOKYO_PRES TOKYO_R50_DIR TOKYO_R50_LONG TOKYO_R50_SHORT TOKYO_R30_DIR TOKYO_R30_LONG TOKYO_R30_SHORT TOKYO_LAND CMA_LAT CMA_LON CMA_CAT CMA_WIND CMA_PRES HKO_LAT HKO_LON HKO_CAT HKO_WIND HKO_PRES NEWDELHI_LAT NEWDELHI_LON NEWDELHI_GRADE NEWDELHI_WIND NEWDELHI_PRES NEWDELHI_CI NEWDELHI_DP NEWDELHI_POCI REUNION_LAT REUNION_LON REUNION_TYPE REUNION_WIND REUNION_PRES REUNION_TNUM REUNION_CI REUNION_RMW REUNION_R34_NE REUNION_R34_SE REUNION_R34_SW REUNION_R34_NW REUNION_R50_NE REUNION_R50_SE REUNION_R50_SW REUNION_R50_NW REUNION_R64_NE REUNION_R64_SE REUNION_R64_SW REUNION_R64_NW BOM_LAT BOM_LON BOM_TYPE BOM_WIND BOM_PRES BOM_TNUM BOM_CI BOM_RMW BOM_R34_NE BOM_R34_SE BOM_R34_SW BOM_R34_NW BOM_R50_NE BOM_R50_SE BOM_R50_SW BOM_R50_NW BOM_R64_NE BOM_R64_SE BOM_R64_SW BOM_R64_NW BOM_ROCI BOM_POCI BOM_EYE BOM_POS_METHOD BOM_PRES_METHOD NADI_LAT NADI_LON NADI_CAT NADI_WIND NADI_PRES WELLINGTON_LAT WELLINGTON_LON WELLINGTON_WIND WELLINGTON_PRES DS824_LAT DS824_LON DS824_STAGE DS824_WIND DS824_PRES TD9636_LAT TD9636_LON TD9636_STAGE TD9636_WIND TD9636_PRES TD9635_LAT TD9635_LON TD9635_WIND TD9635_PRES TD9635_ROCI NEUMANN_LAT NEUMANN_LON NEUMANN_CLASS NEUMANN_WIND NEUMANN_PRES MLC_LAT MLC_LON MLC_CLASS MLC_WIND MLC_PRES USA_GUST BOM_GUST BOM_GUST_PER REUNION_GUST REUNION_GUST_PER USA_SEAHGT USA_SEARAD_NE USA_SEARAD_SE USA_SEARAD_SW USA_SEARAD_NW STORM_SPEED STORM_DIR
2021266N12148 2021 77 WP MM MINDULLE 2021-09-22 18:00:00 NR 11.8000 147.500 PROVISIONAL 1557 1557 O_____________ tcvightals WP202021 11.8000 147.500 29 1003 -1 1008 235 40 16 287
2021266N12148 2021 77 WP MM MINDULLE 2021-09-22 21:00:00 NR 12.0332 146.715 PROVISIONAL 1579 1579 P_____________ WP202021 12.0332 146.715 29 1003 -1 1009 242 40 16 289
2021266N12148 2021 77 WP MM MINDULLE 2021-09-23 00:00:00 NR 12.3000 146.000 PROVISIONAL 1614 1614 O_____________ tcvitals WP202021 12.3000 146.000 29 1003 -1 1010 250 40 15 294
2021266N12148 2021 77 WP MM MINDULLE 2021-09-23 03:00:00 NR 12.6136 145.353 PROVISIONAL 1652 1652 P_____________ WP202021 12.6269 145.380 32 1003 -1 1010 250 40 15 296
2021266N12148 2021 77 WP MM MINDULLE 2021-09-23 06:00:00 NR 12.9455 144.658 PROVISIONAL 1693 1693 O_____________ tcvightals WP202021 13.0000 144.700 35 1004 0 15 40 25 45 1010 250 40 16 295
2021266N12148 2021 77 WP MM MINDULLE 2021-09-23 09:00:00 NR 13.2907 143.830 PROVISIONAL 1752 1752 P_____________ WP202021 13.4232 143.743 37 1001 0 85 1009 225 40 17 293
2021266N12148 2021 77 WP MM MINDULLE 2021-09-23 12:00:00 NR 13.6217 143.025 PROVISIONAL 1783 1783 O_____________ tcvightals WP202021 13.8000 142.800 39 999 0 155 1008 200 40 15 292
2021266N12148 2021 77 WP MM MINDULLE 2021-09-23 15:00:00 NR 13.8791 142.360 PROVISIONAL 1796 1771 P_____________ WP202021 14.0286 142.112 42 998 0 13 292
2021266N12148 2021 77 WP MM MINDULLE 2021-09-23 18:00:00 NR 14.1077 141.801 PROVISIONAL 1771 1722 I_____________ tcvightals WP202021 14.1983 141.604 45 997 0 11 294
2021266N12148 2021 77 WP MM MINDULLE 2021-09-23 21:00:00 NR 14.3378 141.317 PROVISIONAL 1722 1686 P_____________ WP202021 14.3688 141.207 48 996 0 10 299
2021266N12148 2021 77 WP MM MINDULLE 2021-09-24 00:00:00 NR 14.6000 140.900 PROVISIONAL 1686 1649 O_____________ tcvitals WP202021 14.6000 140.900 51 995 0 130 70 55 30 1006 185 30 10 308
2021266N12148 2021 77 WP MM MINDULLE 2021-09-24 03:00:00 NR 14.9372 140.527 PROVISIONAL 1649 1623 P_____________ WP202021 14.9774 140.629 51 994 0 130 65 42 50 1006 185 30 10 314
2021266N12148 2021 77 WP MM MINDULLE 2021-09-24 06:00:00 NR 15.2980 140.147 PROVISIONAL 1615 1579 O_____________ tcvightals WP202021 15.4000 140.300 51 994 0 130 60 30 70 1006 185 30 11 310
2021266N12148 2021 77 WP MM MINDULLE 2021-09-24 09:00:00 NR 15.6301 139.684 PROVISIONAL 1579 1545 P_____________ WP202021 15.7653 139.758 52 992 0 145 77 27 77 1006 185 27 11 306
2021266N12148 2021 77 WP MM MINDULLE 2021-09-24 12:00:00 NR 15.9456 139.232 PROVISIONAL 1534 1512 O_____________ tcvightals WP202021 16.1000 139.200 54 991 0 160 95 25 85 1006 185 25 10 309
2021266N12148 2021 77 WP MM MINDULLE 2021-09-24 15:00:00 NR 16.2598 138.872 PROVISIONAL 1515 1491 P_____________ WP202021 16.4374 138.790 57 988 0 140 92 40 102 1005 202 30 9 314
2021266N12148 2021 77 WP MM MINDULLE 2021-09-24 18:00:00 NR 16.5329 138.588 PROVISIONAL 1491 1477 O_____________ tcvightals WP202021 16.7000 138.500 60 986 0 120 90 55 120 1004 220 35 7 314
2021266N12148 2021 77 WP MM MINDULLE 2021-09-24 21:00:00 NR 16.7158 138.384 PROVISIONAL 1477 1464 P_____________ WP202021 16.7923 138.342 65 983 1 123 97 70 112 1004 173 30 5 315
2021266N12148 2021 77 WP MM MINDULLE 2021-09-25 00:00:00 NR 16.9000 138.200 PROVISIONAL 1464 1446 O_____________ tcvitals WP202021 16.9000 138.200 70 980 1 126 105 85 105 1005 126 25 7 317
2021266N12148 2021 77 WP MM MINDULLE 2021-09-25 03:00:00 NR 17.1904 137.922 PROVISIONAL 1446 1434 P_____________ WP202021 17.2276 137.893 79 972 1 133 90 75 112 1004 138 25 8 319
2021266N12148 2021 77 WP MM MINDULLE 2021-09-25 06:00:00 NR 17.4977 137.664 PROVISIONAL 1439 1428 O_____________ tcvightals WP202021 17.6000 137.600 89 965 2 140 75 65 120 1004 150 25 7 325
2021266N12148 2021 77 WP MM MINDULLE 2021-09-25 09:00:00 NR 17.7495 137.509 PROVISIONAL 1428 1428 P_____________ WP202021 17.8724 137.485 102 954 3 140 90 72 120 1005 155 25 5 330
2021266N12148 2021 77 WP MM MINDULLE 2021-09-25 12:00:00 NR 17.9731 137.381 PROVISIONAL 1432 1418 O_____________ tcvightals WP202021 18.1000 137.400 115 944 4 140 105 80 120 1006 160 25 5 327
2021266N12148 2021 77 WP MM MINDULLE 2021-09-25 15:00:00 NR 18.1919 137.203 PROVISIONAL 1423 1419 P_____________ WP202021 18.3301 137.193 110 948 3 137 107 85 123 1005 181 18 5 322
2021266N12148 2021 77 WP MM MINDULLE 2021-09-25 18:00:00 NR 18.3745 137.044 PROVISIONAL 1414 1414 O_____________ tcvightals WP202021 18.5000 137.000 105 952 3 135 110 90 126 1005 202 12 4 323
2021266N12148 2021 77 WP MM MINDULLE 2021-09-25 21:00:00 NR 18.4981 136.960 PROVISIONAL 1420 1410 P_____________ WP202021 18.5650 136.935 121 934 4 160 115 87 135 1005 206 12 3 329
2021266N12148 2021 77 WP MM MINDULLE 2021-09-26 00:00:00 NR 18.6000 136.900 PROVISIONAL 1416 1412 O_____________ tcvitals WP202021 18.6000 136.900 138 917 5 185 120 85 145 1006 210 12 3 327
2021266N12148 2021 77 WP MM MINDULLE 2021-09-26 03:00:00 NR 18.7211 136.811 PROVISIONAL 1412 1408 P_____________ WP202021 18.6925 136.793 141 912 5 187 132 95 145 1005 215 13 3 329
2021266N12148 2021 77 WP MM MINDULLE 2021-09-26 06:00:00 NR 18.8418 136.741 PROVISIONAL 1408 1408 O_____________ tcvightals WP202021 18.8000 136.700 144 908 5 190 145 105 145 1004 220 14 2 339
2021266N12148 2021 77 WP MM MINDULLE 2021-09-26 09:00:00 NR 18.9457 136.719 PROVISIONAL 1414 1414 P_____________ WP202021 18.8850 136.685 136 916 4 185 152 110 160 1004 235 14 2 354
2021266N12148 2021 77 WP MM MINDULLE 2021-09-26 12:00:00 NR 19.0610 136.719 PROVISIONAL 1425 1425 O_____________ tcvightals WP202021 19.0000 136.700 128 924 4 180 160 115 175 1005 250 14 3 0
2021266N12148 2021 77 WP MM MINDULLE 2021-09-26 15:00:00 NR 19.2175 136.716 PROVISIONAL 1431 1428 P_____________ WP202021 19.2000 136.700 118 934 4 165 150 115 157 1005 265 14 3 357
2021266N12148 2021 77 WP MM MINDULLE 2021-09-26 18:00:00 NR 19.3747 136.713 PROVISIONAL 1428 1418 O_____________ tcvightals WP202021 19.4000 136.700 109 945 3 150 140 115 140 1005 280 14 3 358
2021266N12148 2021 77 WP MM MINDULLE 2021-09-26 21:00:00 NR 19.4886 136.712 PROVISIONAL 1418 1408 P_____________ WP202021 19.5075 136.707 109 944 3 165 155 127 150 1005 290 14 2 0
2021266N12148 2021 77 WP MM MINDULLE 2021-09-27 00:00:00 NR 19.6000 136.700 PROVISIONAL 1408 1398 O_____________ tcvitals WP202021 19.6000 136.700 109 944 3 180 170 140 160 1005 300 14 3 351
2021266N12148 2021 77 WP MM MINDULLE 2021-09-27 03:00:00 NR 19.7446 136.661 PROVISIONAL 1398 1373 P_____________ WP202021 19.7500 136.665 101 949 3 197 185 140 167 1004 315 14 3 343
2021266N12148 2021 77 WP MM MINDULLE 2021-09-27 06:00:00 NR 19.8923 136.604 PROVISIONAL 1373 1358 O_____________ tcvightals WP202021 19.9000 136.600 93 955 2 215 200 140 175 1004 330 14 3 335
2021266N12148 2021 77 WP MM MINDULLE 2021-09-27 09:00:00 NR 20.0155 136.527 PROVISIONAL 1358 1348 P_____________ WP202021 19.9925 136.500 91 958 2 212 197 147 167 1005 340 27 3 330
2021266N12148 2021 77 WP MM MINDULLE 2021-09-27 12:00:00 NR 20.1513 136.447 PROVISIONAL 1334 1324 O_____________ tcvightals WP202021 20.1000 136.400 89 961 2 210 195 155 160 1006 350 40 3 338
2021266N12148 2021 77 WP MM MINDULLE 2021-09-27 15:00:00 NR 20.3281 136.386 PROVISIONAL 1324 1299 P_____________ WP202021 20.2775 136.342 89 961 2 200 152 152 162 1006 355 33 4 344
2021266N12148 2021 77 WP MM MINDULLE 2021-09-27 18:00:00 NR 20.5345 136.329 PROVISIONAL 1299 1279 O_____________ tcvightals WP202021 20.5000 136.300 89 962 2 190 110 150 165 1006 360 27 4 347
2021266N12148 2021 77 WP MM MINDULLE 2021-09-27 21:00:00 NR 20.7515 136.281 PROVISIONAL 1268 1244 P_____________ WP202021 20.7274 136.280 91 959 2 185 150 152 162 1006 360 24 5 346
2021266N12148 2021 77 WP MM MINDULLE 2021-09-28 00:00:00 NR 21.0000 136.200 PROVISIONAL 1244 1205 O_____________ tcvitals WP202021 21.0000 136.200 93 957 2 180 190 155 160 1006 360 22 6 336
2021266N12148 2021 77 WP MM MINDULLE 2021-09-28 03:00:00 NR 21.2862 136.023 PROVISIONAL 1205 1165 P_____________ WP202021 21.3651 135.958 93 955 2 190 195 175 165 1005 360 21 7 329
2021266N12148 2021 77 WP MM MINDULLE 2021-09-28 06:00:00 NR 21.5644 135.833 PROVISIONAL 1165 1141 O_____________ tcvightals WP202021 21.7000 135.700 93 954 2 200 200 195 170 1004 360 20 6 328
2021266N12148 2021 77 WP MM MINDULLE 2021-09-28 09:00:00 NR 21.7631 135.698 PROVISIONAL 1141 1116 P_____________ WP202021 21.8574 135.555 96 951 3 197 200 195 180 1004 360 17 5 333
2021266N12148 2021 77 WP MM MINDULLE 2021-09-28 12:00:00 NR 21.9659 135.610 PROVISIONAL 1116 1096 O_____________ tcvightals WP202021 22.0000 135.500 99 949 3 195 200 195 190 1004 360 14 5 347
2021266N12148 2021 77 WP MM MINDULLE 2021-09-28 15:00:00 NR 22.2459 135.579 PROVISIONAL 1096 1056 P_____________ WP202021 22.2700 135.550 102 946 3 200 187 195 190 1004 360 14 6 354
2021266N12148 2021 77 WP MM MINDULLE 2021-09-28 18:00:00 NR 22.5719 135.557 PROVISIONAL 1056 1021 O_____________ tcvightals WP202021 22.6000 135.600 105 944 3 205 175 195 190 1004 360 14 7 351
2021266N12148 2021 77 WP MM MINDULLE 2021-09-28 21:00:00 NR 22.9146 135.475 PROVISIONAL 1021 977 P_____________ WP202021 22.9275 135.508 110 939 3 205 175 195 190 1004 360 14 7 349
2021266N12148 2021 77 WP MM MINDULLE 2021-09-29 00:00:00 NR 23.3000 135.400 PROVISIONAL 977 937 O_____________ tcvitals WP202021 23.3000 135.400 115 934 4 205 175 195 190 1004 360 14 8 354
2021266N12148 2021 77 WP MM MINDULLE 2021-09-29 03:00:00 NR 23.7460 135.378 PROVISIONAL 937 888 P_____________ WP202021 23.7500 135.377 115 933 4 220 207 187 202 1004 360 18 9 0
2021266N12148 2021 77 WP MM MINDULLE 2021-09-29 06:00:00 NR 24.2000 135.400 PROVISIONAL 888 850 O_____________ tcvitals WP202021 24.2000 135.400 115 933 4 235 240 180 215 1005 360 22 8 3
2021266N12148 2021 77 WP MM MINDULLE 2021-09-29 09:00:00 NR 24.5809 135.433 PROVISIONAL 850 827 P_____________ WP202021 24.5500 135.420 115 933 4 242 262 190 222 1006 360 22 8 8
2021266N12148 2021 77 WP MM MINDULLE 2021-09-29 12:00:00 NR 24.9524 135.516 PROVISIONAL 818 794 O_____________ tcvightals WP202021 24.9000 135.500 115 933 4 250 285 200 230 1007 360 22 8 15
2021266N12148 2021 77 WP MM MINDULLE 2021-09-29 15:00:00 NR 25.3646 135.668 PROVISIONAL 790 763 P_____________ WP202021 25.3350 135.670 112 934 3 250 285 200 230 1006 355 22 9 21
2021266N12148 2021 77 WP MM MINDULLE 2021-09-29 18:00:00 NR 25.7981 135.876 PROVISIONAL 763 738 O_____________ tcvightals WP202021 25.8000 135.900 109 935 3 250 285 200 230 1005 350 22 9 25
2021266N12148 2021 77 WP MM MINDULLE 2021-09-29 21:00:00 NR 26.2230 136.104 PROVISIONAL 738 714 P_____________ WP202021 26.2198 136.113 104 942 3 232 255 192 200 1005 350 22 10 28
2021266N12148 2021 77 WP MM MINDULLE 2021-09-30 00:00:00 NR 26.7000 136.400 PROVISIONAL 714 694 O_____________ tcvitals WP202021 26.7000 136.400 99 949 3 215 225 185 170 1005 350 22 12 30
2021266N12148 2021 77 WP MM MINDULLE 2021-09-30 03:00:00 NR 27.2691 136.775 PROVISIONAL 687 637 P_____________ WP202021 27.3275 136.812 94 952 2 217 212 177 165 1005 345 22 14 32
2021266N12148 2021 77 WP MM MINDULLE 2021-09-30 06:00:00 NR 27.8802 137.221 PROVISIONAL 628 583 O_____________ tcvightals WP202021 28.0000 137.300 89 955 2 220 200 170 160 1005 340 22 15 34
2021266N12148 2021 77 WP MM MINDULLE 2021-09-30 09:00:00 NR 28.4796 137.698 PROVISIONAL 575 530 P_____________ WP202021 28.6074 137.793 84 958 2 232 237 192 175 1005 325 19 15 36
2021266N12148 2021 77 WP MM MINDULLE 2021-09-30 12:00:00 NR 29.0935 138.210 PROVISIONAL 530 495 O_____________ tcvightals WP202021 29.2000 138.300 80 962 1 245 275 215 190 1006 310 17 15 36
2021266N12148 2021 77 WP MM MINDULLE 2021-09-30 15:00:00 NR 29.7128 138.713 PROVISIONAL 495 469 P_____________ WP202021 29.7567 138.739 80 961 1 255 272 217 195 1006 317 18 16 36
2021266N12148 2021 77 WP MM MINDULLE 2021-09-30 18:00:00 NR 30.4000 139.300 PROVISIONAL 469 395 O_____________ tcvitals WP202021 30.4000 139.300 80 961 1 265 270 220 200 1006 325 20 19 38
2021266N12148 2021 77 WP MM MINDULLE 2021-09-30 21:00:00 NR 31.2043 140.055 PROVISIONAL 398 333 P_____________ WP202021 31.2265 140.154 78 961 1 22 39
2021266N12148 2021 77 WP MM MINDULLE 2021-10-01 00:00:00 NR 32.0869 140.901 PROVISIONAL 325 268 I_____________ tcvightals WP202021 32.1627 141.151 77 962 1 23 39
2021266N12148 2021 77 WP MM MINDULLE 2021-10-01 03:00:00 NR 33.0090 141.781 PROVISIONAL 274 240 P_____________ WP202021 33.1366 142.173 75 963 1 23 37
2021266N12148 2021 77 WP MM MINDULLE 2021-10-01 06:00:00 NR 33.9211 142.566 PROVISIONAL 247 228 O_____________ tcvightals WP202021 34.1000 143.100 74 964 1 260 300 230 215 1006 330 20 22 34
2021266N12148 2021 77 WP MM MINDULLE 2021-10-01 09:00:00 NR 34.8070 143.248 PROVISIONAL 231 231 P_____________ WP202021 34.9575 143.745 69 969 1 242 260 227 217 1006 340 30 21 32
2021266N12148 2021 77 WP MM MINDULLE 2021-10-01 12:00:00 NR 35.7032 143.931 PROVISIONAL 270 270 O_____________ tcvightals WP202021 35.8000 144.300 64 975 1 225 220 225 220 1006 350 40 22 33
2021266N12148 2021 77 WP MM MINDULLE 2021-10-01 15:00:00 NR 36.6524 144.730 PROVISIONAL 330 330 P_____________ WP202021 36.6952 144.966 59 976 0 24 36
2021266N12148 2021 77 WP MM MINDULLE 2021-10-01 18:00:00 NR 37.6350 145.656 PROVISIONAL 373 368 P_____________ WP202021 37.6403 145.758 54 978 0 25 37
2021266N12148 2021 77 WP MM MINDULLE 2021-10-01 21:00:00 NR 38.6199 146.614 PROVISIONAL 400 400 P_____________ WP202021 38.6152 146.648 49 980 0 25 38
2021266N12148 2021 77 WP MM MINDULLE 2021-10-02 00:00:00 NR 39.6000 147.600 PROVISIONAL 434 O_____________ tcvitals WP202021 39.6000 147.600 45 982 0 240 280 230 185 1007 360 55 25 38

Digital Typhoon Data and Search

About IBTrACS Database

This database is a web-friendly format of International Best Track Archive for Climate Stewardship (IBTrACS), a global best track data archive curated by NOAA dating back to 1842.

Updated: 2021-10-25